Historyczne dane pomiarowe

Dodano dane terminowe – wersja testowa.

Dane z okresu 1951-2019

Wersja bazy: 1.34 [2019-03-16, lista zmian], aktualizacja planowana na 2019-04-15

Dane meteo z obszaru Polski uzyskane na podstawie danych udostępnionych przez Instytut Meteorologii i Gospodarki Wodnej – Państwowy Instytut Badawczy.

 

Wybierz Datę:    

       

TemperaturaWilgotnośćWiatrCiśnienieOpadyŚniegCzas trwania zjawisk
 Stacja t tx tn tng RH VA  wxwx mslp ppp RRR   cm mm wxwxwxwxwxwxwx
1987-07-08 23.7 29.6 16.1 12.8 57.3- 3.7 3.7---- 2.7------------
1987-07-07 21.3 26.8 11.8 9.1 57.0- 0.7 1.7---- 0.0------------
1987-07-06 18.9 24.9 10.5 7.2 60.8- 1.3 1.7---- 0.0------------
1987-07-05 18.3 22.7 11.8 10.3 64.5- 3.7 3.7---- 0.0------------
1987-07-04 18.2 22.4 12.2 12.1 62.5- 4.3 2.3---- 0.0------------
1987-07-03 18.7 23.4 12.4 10.2 66.5- 2.3 2.3---- 0.0------------
1987-07-02 19.9 25.0 16.7 16.3 70.3- 5.7 3.0---- 0.0------------
1987-07-01 25.5 31.5 20.6 18.9 68.5- 3.0 3.0---- 0.6------------
1987-06-30 24.4 29.0 19.0 16.5 72.5- 2.7 1.0---- 0.0------------
1987-06-29 17.9 23.6 8.1 6.8 76.3- 4.7 2.3---- 0.6------------
1987-06-28 17.4 21.2 13.8 11.8 82.0- 5.3 2.0---- 0.0------------
1987-06-27 18.5 22.5 16.2 15.3 79.5- 6.0 1.3---- 0.0------------
1987-06-26 17.0 22.6 11.0 8.3 71.5- 5.3 4.3---- 2.1------------
1987-06-25 12.6 18.3 10.7 11.0 91.3- 5.7 2.0---- 4.7------------
1987-06-24 16.8 20.5 13.6 11.8 69.8- 5.3 3.7---- 8.3------------
1987-06-23 15.9 21.4 12.9 11.8 84.3- 6.0 2.3---- 0.0------------
1987-06-22 20.0 25.1 11.8 9.4 64.8- 3.3 1.7---- 0.0------------
1987-06-21 18.2 24.5 9.7 7.5 67.0- 3.3 2.3---- 0.0------------
1987-06-20 16.6 22.1 9.9 7.8 65.5- 2.3 3.0---- 0.0------------
1987-06-19 12.3 16.7 7.8 6.1 75.8- 4.3 3.3---- 0.7------------
1987-06-18 11.7 17.0 4.7 4.5 75.5- 4.0 2.7---- 0.7------------
1987-06-17 12.3 14.9 11.3 10.5 73.3- 6.0 4.3---- 0.0------------
1987-06-16 14.3 24.8 11.3 10.8 80.8- 8.0 6.0---- 2.5------------
1987-06-15 21.7 26.5 14.4 12.4 79.0- 4.7 4.3---- 4.4------------
1987-06-14 19.1 26.7 12.8 12.2 80.8- 6.3 4.0---- 1.0------------
1987-06-13 18.6 23.4 14.2 12.4 74.0- 4.3 3.7---- 0.0------------
1987-06-12 20.7 25.9 12.0 9.8 61.8- 4.3 2.3---- 0.0------------
1987-06-11 17.6 21.5 12.7 10.8 70.5- 2.7 1.0---- 0.0------------
1987-06-10 15.7 18.7 12.9 12.4 76.8- 6.3 1.7---- 0.0------------
1987-06-09 14.4 23.0 12.2 11.3 82.5- 6.0 2.3---- 1.4------------
1987-06-08 19.7 25.3 15.6 15.2 81.3- 6.3 2.7---- 11.2------------
1987-06-07 17.5 23.9 10.4 7.8 74.0- 5.0 3.0---- 5.3------------
1987-06-06 14.5 19.5 11.0 10.8 82.5- 5.3 5.0---- 0.0------------
1987-06-05 13.9 15.9 12.8 12.2 99.8- 8.0 2.3---- 47.5------------
1987-06-04 12.9 18.8 5.1 3.4 85.8- 6.7 4.3---- 3.9------------
1987-06-03 11.7 15.9 8.5 7.2 80.8- 5.3 3.0---- 0.0------------
1987-06-02 10.7 13.4 8.0 3.9 85.3- 7.3 3.7---- 12.1------------
1987-06-01 9.1 13.5 3.2 0.2 76.5- 7.3 2.7---- 0.0------------
1987-05-31 8.4 11.2 6.6 6.3 80.8- 5.3 2.3---- 0.0------------
1987-05-30 8.7 13.0 6.3 2.5 74.8- 7.3 3.7---- 0.0------------
1987-05-29 11.5 14.5 7.6 7.3 64.3- 7.3 5.3---- 0.0------------
1987-05-28 15.0 22.2 8.2 6.3 69.0- 5.7 3.7---- 0.0------------
1987-05-27 15.0 21.6 4.5 2.4 54.3- 3.7 1.7---- 0.0------------
1987-05-26 12.0 18.3 3.0 0.4 57.8- 0.3 1.3---- 0.0------------
1987-05-25 11.9 16.0 8.2 5.9 59.5- 1.3 4.3---- 0.0------------
1987-05-24 13.8 19.5 8.9 6.4 63.8- 2.7 4.7---- 0.0------------
1987-05-23 11.6 14.6 10.6 10.4 87.0- 8.0 4.0---- 0.0------------
1987-05-22 14.3 21.5 8.9 9.6 69.8- 3.3 5.7---- 0.0------------
1987-05-21 12.0 15.2 9.5 8.3 78.5- 6.7 2.3---- 0.0------------
1987-05-20 14.2 18.5 8.8 6.3 69.0- 4.7 2.3---- 1.8------------
1987-05-19 14.0 17.5 12.0 9.8 90.3- 8.0 1.3---- 0.4------------
1987-05-18 12.8 18.5 5.9 3.1 76.5- 4.3 2.0---- 8.6------------
1987-05-17 10.7 15.0 8.0 6.3 74.0- 5.0 5.0---- 0.1------------
1987-05-16 10.0 13.2 7.2 4.2 89.8- 8.0 4.7---- 15.6------------
1987-05-15 10.5 16.5 4.6 2.2 68.3- 1.3 3.3---- 0.0------------
1987-05-14 8.5 11.8 6.4 5.5 91.8- 8.0 3.3---- 15.6------------
1987-05-13 14.2 17.0 11.7 10.9 75.8- 8.0 2.7---- 10.8------------
1987-05-12 13.0 20.5 2.6 2.0 55.0- 4.3 5.3---- 0.0------------
1987-05-11 10.9 20.0 7.6 5.1 64.5- 5.3 6.0---- 0.4------------
1987-05-10 15.6 24.4 4.3 1.3 54.8- 1.3 6.0---- 0.3------------
504.3 ms

 

Źródłem pochodzenia danych jest Instytut Meteorologii i Gospodarki Wodnej – Państwowy Instytut Badawczy. Dane Instytutu Meteorologii i Gospodarki Wodnej – Państwowego Instytutu Badawczego zostały przetworzone.

Dane źródłowe można odnaleźć na stronie https://dane.imgw.pl